sensor_id;sensor_type;location;lat;lon;timestamp;P1;durP1;ratioP1;P2;durP2;ratioP2
8268;SDS011;4174;48.304;16.364;2023-05-18T00:05:41;10.60;;;3.15;;
8268;SDS011;4174;48.304;16.364;2023-05-18T00:11:48;8.90;;;3.20;;
8268;SDS011;4174;48.304;16.364;2023-05-18T00:17:56;9.32;;;2.90;;
8268;SDS011;4174;48.304;16.364;2023-05-18T00:24:05;8.50;;;3.15;;
8268;SDS011;4174;48.304;16.364;2023-05-18T00:30:11;8.97;;;3.00;;
8268;SDS011;4174;48.304;16.364;2023-05-18T00:36:20;9.10;;;3.00;;
8268;SDS011;4174;48.304;16.364;2023-05-18T00:42:27;10.97;;;3.17;;
8268;SDS011;4174;48.304;16.364;2023-05-18T00:48:33;8.43;;;3.03;;
8268;SDS011;4174;48.304;16.364;2023-05-18T00:54:43;9.65;;;3.05;;
8268;SDS011;4174;48.304;16.364;2023-05-18T01:00:48;10.07;;;2.92;;
8268;SDS011;4174;48.304;16.364;2023-05-18T01:06:59;9.20;;;3.08;;
8268;SDS011;4174;48.304;16.364;2023-05-18T01:13:11;10.40;;;3.10;;
8268;SDS011;4174;48.304;16.364;2023-05-18T01:19:22;9.30;;;2.90;;
8268;SDS011;4174;48.304;16.364;2023-05-18T01:25:44;9.37;;;2.97;;
8268;SDS011;4174;48.304;16.364;2023-05-18T01:32:05;9.67;;;2.60;;
8268;SDS011;4174;48.304;16.364;2023-05-18T01:38:20;8.17;;;2.73;;
8268;SDS011;4174;48.304;16.364;2023-05-18T01:44:26;7.43;;;2.67;;
8268;SDS011;4174;48.304;16.364;2023-05-18T01:56:50;8.13;;;2.40;;
8268;SDS011;4174;48.304;16.364;2023-05-18T02:02:57;9.52;;;3.05;;
8268;SDS011;4174;48.304;16.364;2023-05-18T02:09:03;9.07;;;2.63;;
8268;SDS011;4174;48.304;16.364;2023-05-18T02:15:11;8.48;;;2.55;;
8268;SDS011;4174;48.304;16.364;2023-05-18T02:21:15;7.57;;;2.50;;
8268;SDS011;4174;48.304;16.364;2023-05-18T02:27:18;7.10;;;2.80;;
8268;SDS011;4174;48.304;16.364;2023-05-18T02:33:22;8.47;;;2.70;;
8268;SDS011;4174;48.304;16.364;2023-05-18T02:39:25;9.40;;;2.60;;
8268;SDS011;4174;48.304;16.364;2023-05-18T02:45:30;8.60;;;2.40;;
8268;SDS011;4174;48.304;16.364;2023-05-18T02:51:33;7.47;;;2.50;;
8268;SDS011;4174;48.304;16.364;2023-05-18T02:57:37;9.50;;;2.40;;
8268;SDS011;4174;48.304;16.364;2023-05-18T03:03:42;8.60;;;2.70;;
8268;SDS011;4174;48.304;16.364;2023-05-18T03:09:45;10.20;;;2.50;;
8268;SDS011;4174;48.304;16.364;2023-05-18T03:15:49;7.83;;;2.30;;
8268;SDS011;4174;48.304;16.364;2023-05-18T03:21:53;10.87;;;3.10;;
8268;SDS011;4174;48.304;16.364;2023-05-18T03:27:57;11.25;;;2.90;;
8268;SDS011;4174;48.304;16.364;2023-05-18T03:33:59;9.93;;;2.97;;
8268;SDS011;4174;48.304;16.364;2023-05-18T03:40:07;7.30;;;2.43;;
8268;SDS011;4174;48.304;16.364;2023-05-18T03:46:14;7.80;;;2.42;;
8268;SDS011;4174;48.304;16.364;2023-05-18T03:52:17;9.17;;;2.67;;
8268;SDS011;4174;48.304;16.364;2023-05-18T03:58:21;7.73;;;2.50;;
8268;SDS011;4174;48.304;16.364;2023-05-18T04:04:24;9.07;;;2.43;;
8268;SDS011;4174;48.304;16.364;2023-05-18T04:10:28;10.48;;;2.70;;
8268;SDS011;4174;48.304;16.364;2023-05-18T04:16:31;8.67;;;2.40;;
8268;SDS011;4174;48.304;16.364;2023-05-18T04:22:38;10.13;;;2.60;;
8268;SDS011;4174;48.304;16.364;2023-05-18T04:28:38;10.50;;;2.20;;
8268;SDS011;4174;48.304;16.364;2023-05-18T04:34:41;8.10;;;2.30;;
8268;SDS011;4174;48.304;16.364;2023-05-18T04:40:45;9.17;;;2.40;;
8268;SDS011;4174;48.304;16.364;2023-05-18T04:46:49;8.13;;;2.40;;
8268;SDS011;4174;48.304;16.364;2023-05-18T04:52:52;9.35;;;2.40;;
8268;SDS011;4174;48.304;16.364;2023-05-18T04:58:55;9.83;;;2.40;;
8268;SDS011;4174;48.304;16.364;2023-05-18T05:05:00;8.67;;;2.17;;
8268;SDS011;4174;48.304;16.364;2023-05-18T05:11:03;8.52;;;2.30;;
8268;SDS011;4174;48.304;16.364;2023-05-18T05:17:07;8.17;;;2.17;;
8268;SDS011;4174;48.304;16.364;2023-05-18T05:23:12;10.27;;;2.40;;
8268;SDS011;4174;48.304;16.364;2023-05-18T05:29:16;8.37;;;2.17;;
8268;SDS011;4174;48.304;16.364;2023-05-18T05:35:20;9.45;;;2.30;;
8268;SDS011;4174;48.304;16.364;2023-05-18T05:41:23;8.90;;;2.23;;
8268;SDS011;4174;48.304;16.364;2023-05-18T05:47:28;7.60;;;2.13;;
8268;SDS011;4174;48.304;16.364;2023-05-18T05:53:32;9.93;;;2.17;;
8268;SDS011;4174;48.304;16.364;2023-05-18T05:59:36;10.27;;;2.20;;
8268;SDS011;4174;48.304;16.364;2023-05-18T06:05:39;9.23;;;2.30;;
8268;SDS011;4174;48.304;16.364;2023-05-18T06:11:44;10.10;;;2.40;;
8268;SDS011;4174;48.304;16.364;2023-05-18T06:17:48;11.27;;;3.50;;
8268;SDS011;4174;48.304;16.364;2023-05-18T06:23:52;9.93;;;3.17;;
8268;SDS011;4174;48.304;16.364;2023-05-18T06:29:55;9.23;;;2.87;;
8268;SDS011;4174;48.304;16.364;2023-05-18T06:35:59;9.67;;;2.80;;
8268;SDS011;4174;48.304;16.364;2023-05-18T06:42:02;9.93;;;2.67;;
8268;SDS011;4174;48.304;16.364;2023-05-18T06:48:06;9.50;;;2.40;;
8268;SDS011;4174;48.304;16.364;2023-05-18T06:54:11;14.13;;;5.45;;
8268;SDS011;4174;48.304;16.364;2023-05-18T07:00:14;12.00;;;3.20;;
8268;SDS011;4174;48.304;16.364;2023-05-18T07:06:19;9.40;;;2.47;;
8268;SDS011;4174;48.304;16.364;2023-05-18T07:12:23;10.80;;;2.87;;
8268;SDS011;4174;48.304;16.364;2023-05-18T07:18:27;10.47;;;2.60;;
8268;SDS011;4174;48.304;16.364;2023-05-18T07:24:30;8.85;;;2.42;;
8268;SDS011;4174;48.304;16.364;2023-05-18T07:30:34;10.77;;;2.50;;
8268;SDS011;4174;48.304;16.364;2023-05-18T07:36:38;11.20;;;2.70;;
8268;SDS011;4174;48.304;16.364;2023-05-18T07:42:42;10.95;;;2.60;;
8268;SDS011;4174;48.304;16.364;2023-05-18T07:48:45;10.63;;;2.50;;
8268;SDS011;4174;48.304;16.364;2023-05-18T07:54:49;12.93;;;3.00;;
8268;SDS011;4174;48.304;16.364;2023-05-18T08:00:52;8.47;;;2.80;;
8268;SDS011;4174;48.304;16.364;2023-05-18T08:06:56;10.25;;;2.60;;
8268;SDS011;4174;48.304;16.364;2023-05-18T08:12:59;10.63;;;2.67;;
8268;SDS011;4174;48.304;16.364;2023-05-18T08:19:03;10.93;;;2.90;;
8268;SDS011;4174;48.304;16.364;2023-05-18T08:25:06;10.23;;;2.80;;
8268;SDS011;4174;48.304;16.364;2023-05-18T08:31:10;10.52;;;2.53;;
8268;SDS011;4174;48.304;16.364;2023-05-18T08:37:15;10.63;;;2.65;;
8268;SDS011;4174;48.304;16.364;2023-05-18T08:43:19;9.07;;;2.60;;
8268;SDS011;4174;48.304;16.364;2023-05-18T08:49:22;9.77;;;2.50;;
8268;SDS011;4174;48.304;16.364;2023-05-18T08:55:25;11.73;;;2.72;;
8268;SDS011;4174;48.304;16.364;2023-05-18T09:01:29;12.50;;;3.30;;
8268;SDS011;4174;48.304;16.364;2023-05-18T09:07:32;12.27;;;2.93;;
8268;SDS011;4174;48.304;16.364;2023-05-18T09:13:37;10.20;;;2.90;;
8268;SDS011;4174;48.304;16.364;2023-05-18T09:19:40;11.30;;;3.70;;
8268;SDS011;4174;48.304;16.364;2023-05-18T09:25:44;10.98;;;3.10;;
8268;SDS011;4174;48.304;16.364;2023-05-18T09:31:46;9.47;;;2.60;;
8268;SDS011;4174;48.304;16.364;2023-05-18T09:37:49;12.13;;;3.10;;
8268;SDS011;4174;48.304;16.364;2023-05-18T09:43:52;11.73;;;2.90;;
8268;SDS011;4174;48.304;16.364;2023-05-18T09:49:55;10.03;;;2.70;;
8268;SDS011;4174;48.304;16.364;2023-05-18T09:56:00;11.90;;;3.10;;
8268;SDS011;4174;48.304;16.364;2023-05-18T10:02:03;11.88;;;3.30;;
8268;SDS011;4174;48.304;16.364;2023-05-18T10:08:06;9.82;;;2.85;;
8268;SDS011;4174;48.304;16.364;2023-05-18T10:14:10;10.50;;;3.17;;
8268;SDS011;4174;48.304;16.364;2023-05-18T10:20:14;9.07;;;2.97;;
8268;SDS011;4174;48.304;16.364;2023-05-18T10:26:17;10.60;;;3.10;;
8268;SDS011;4174;48.304;16.364;2023-05-18T10:32:19;10.03;;;2.90;;
8268;SDS011;4174;48.304;16.364;2023-05-18T10:38:23;9.67;;;3.13;;
8268;SDS011;4174;48.304;16.364;2023-05-18T10:44:24;9.60;;;2.80;;
8268;SDS011;4174;48.304;16.364;2023-05-18T10:50:27;11.27;;;2.70;;
8268;SDS011;4174;48.304;16.364;2023-05-18T10:56:32;10.55;;;2.80;;
8268;SDS011;4174;48.304;16.364;2023-05-18T11:02:36;11.18;;;2.80;;
8268;SDS011;4174;48.304;16.364;2023-05-18T11:08:41;9.17;;;3.07;;
8268;SDS011;4174;48.304;16.364;2023-05-18T11:14:49;8.43;;;2.70;;
8268;SDS011;4174;48.304;16.364;2023-05-18T11:20:52;10.30;;;2.95;;
8268;SDS011;4174;48.304;16.364;2023-05-18T11:26:57;10.75;;;2.60;;
8268;SDS011;4174;48.304;16.364;2023-05-18T11:39:22;9.90;;;2.80;;
8268;SDS011;4174;48.304;16.364;2023-05-18T11:45:17;11.47;;;3.30;;
8268;SDS011;4174;48.304;16.364;2023-05-18T11:51:20;11.40;;;3.70;;
8268;SDS011;4174;48.304;16.364;2023-05-18T11:57:25;9.27;;;3.20;;
8268;SDS011;4174;48.304;16.364;2023-05-18T12:03:30;11.07;;;3.22;;
8268;SDS011;4174;48.304;16.364;2023-05-18T12:09:34;12.03;;;3.07;;
8268;SDS011;4174;48.304;16.364;2023-05-18T12:15:38;11.15;;;3.10;;
8268;SDS011;4174;48.304;16.364;2023-05-18T12:21:41;10.70;;;3.10;;
8268;SDS011;4174;48.304;16.364;2023-05-18T12:27:44;9.52;;;3.05;;
8268;SDS011;4174;48.304;16.364;2023-05-18T12:33:49;9.95;;;3.15;;
8268;SDS011;4174;48.304;16.364;2023-05-18T12:39:52;12.00;;;3.27;;
8268;SDS011;4174;48.304;16.364;2023-05-18T12:45:56;10.77;;;3.45;;
8268;SDS011;4174;48.304;16.364;2023-05-18T12:51:58;13.50;;;3.40;;
8268;SDS011;4174;48.304;16.364;2023-05-18T12:58:02;12.13;;;3.37;;
8268;SDS011;4174;48.304;16.364;2023-05-18T13:04:14;10.13;;;2.97;;
8268;SDS011;4174;48.304;16.364;2023-05-18T13:10:17;9.70;;;3.40;;
8268;SDS011;4174;48.304;16.364;2023-05-18T13:16:20;11.97;;;3.60;;
8268;SDS011;4174;48.304;16.364;2023-05-18T13:22:24;10.53;;;3.40;;
8268;SDS011;4174;48.304;16.364;2023-05-18T13:28:27;10.73;;;3.50;;
8268;SDS011;4174;48.304;16.364;2023-05-18T13:34:31;11.23;;;3.37;;
8268;SDS011;4174;48.304;16.364;2023-05-18T13:40:36;13.27;;;4.23;;
8268;SDS011;4174;48.304;16.364;2023-05-18T13:46:38;10.25;;;3.58;;
8268;SDS011;4174;48.304;16.364;2023-05-18T13:52:42;10.47;;;3.40;;
8268;SDS011;4174;48.304;16.364;2023-05-18T13:58:45;10.75;;;3.40;;
8268;SDS011;4174;48.304;16.364;2023-05-18T14:04:48;11.13;;;3.57;;
8268;SDS011;4174;48.304;16.364;2023-05-18T14:10:52;9.27;;;3.63;;
8268;SDS011;4174;48.304;16.364;2023-05-18T14:16:55;10.27;;;3.70;;
8268;SDS011;4174;48.304;16.364;2023-05-18T14:22:59;13.23;;;3.50;;
8268;SDS011;4174;48.304;16.364;2023-05-18T14:29:02;12.70;;;3.43;;
8268;SDS011;4174;48.304;16.364;2023-05-18T14:35:07;12.63;;;3.60;;
8268;SDS011;4174;48.304;16.364;2023-05-18T14:41:12;9.77;;;3.40;;
8268;SDS011;4174;48.304;16.364;2023-05-18T14:47:16;11.63;;;3.40;;
8268;SDS011;4174;48.304;16.364;2023-05-18T14:53:21;9.13;;;3.27;;
8268;SDS011;4174;48.304;16.364;2023-05-18T14:59:24;10.60;;;3.58;;
8268;SDS011;4174;48.304;16.364;2023-05-18T15:05:29;10.43;;;3.50;;
8268;SDS011;4174;48.304;16.364;2023-05-18T15:11:32;13.02;;;3.72;;
8268;SDS011;4174;48.304;16.364;2023-05-18T15:17:36;9.63;;;3.60;;
8268;SDS011;4174;48.304;16.364;2023-05-18T15:23:40;10.90;;;3.73;;
8268;SDS011;4174;48.304;16.364;2023-05-18T15:29:44;11.18;;;3.65;;
8268;SDS011;4174;48.304;16.364;2023-05-18T15:35:48;9.20;;;3.77;;
8268;SDS011;4174;48.304;16.364;2023-05-18T15:41:52;10.23;;;3.72;;
8268;SDS011;4174;48.304;16.364;2023-05-18T15:47:56;10.90;;;3.70;;
8268;SDS011;4174;48.304;16.364;2023-05-18T15:54:01;10.18;;;3.70;;
8268;SDS011;4174;48.304;16.364;2023-05-18T16:00:05;12.10;;;3.80;;
8268;SDS011;4174;48.304;16.364;2023-05-18T16:06:12;12.67;;;3.90;;
8268;SDS011;4174;48.304;16.364;2023-05-18T16:12:15;9.50;;;3.60;;
8268;SDS011;4174;48.304;16.364;2023-05-18T16:18:19;11.00;;;3.90;;
8268;SDS011;4174;48.304;16.364;2023-05-18T16:24:23;12.70;;;3.90;;
8268;SDS011;4174;48.304;16.364;2023-05-18T16:30:27;9.77;;;3.97;;
8268;SDS011;4174;48.304;16.364;2023-05-18T16:36:30;8.90;;;3.67;;
8268;SDS011;4174;48.304;16.364;2023-05-18T16:42:34;10.93;;;4.20;;
8268;SDS011;4174;48.304;16.364;2023-05-18T16:48:37;12.43;;;4.10;;
8268;SDS011;4174;48.304;16.364;2023-05-18T16:54:41;9.85;;;4.07;;
8268;SDS011;4174;48.304;16.364;2023-05-18T17:00:44;10.53;;;3.97;;
8268;SDS011;4174;48.304;16.364;2023-05-18T17:06:49;10.27;;;4.10;;
8268;SDS011;4174;48.304;16.364;2023-05-18T17:12:52;11.10;;;3.90;;
8268;SDS011;4174;48.304;16.364;2023-05-18T17:18:55;10.75;;;3.78;;
8268;SDS011;4174;48.304;16.364;2023-05-18T17:24:59;10.37;;;3.93;;
8268;SDS011;4174;48.304;16.364;2023-05-18T17:31:02;10.17;;;4.27;;
8268;SDS011;4174;48.304;16.364;2023-05-18T17:37:05;10.60;;;4.50;;
8268;SDS011;4174;48.304;16.364;2023-05-18T17:43:09;11.27;;;4.27;;
8268;SDS011;4174;48.304;16.364;2023-05-18T17:49:12;11.93;;;4.22;;
8268;SDS011;4174;48.304;16.364;2023-05-18T17:55:15;12.18;;;4.22;;
8268;SDS011;4174;48.304;16.364;2023-05-18T18:01:19;12.83;;;4.60;;
8268;SDS011;4174;48.304;16.364;2023-05-18T18:07:23;15.47;;;4.20;;
8268;SDS011;4174;48.304;16.364;2023-05-18T18:13:26;11.70;;;4.40;;
8268;SDS011;4174;48.304;16.364;2023-05-18T18:19:30;12.30;;;4.63;;
8268;SDS011;4174;48.304;16.364;2023-05-18T18:25:34;9.48;;;4.30;;
8268;SDS011;4174;48.304;16.364;2023-05-18T18:31:37;11.33;;;4.30;;
8268;SDS011;4174;48.304;16.364;2023-05-18T18:37:42;11.32;;;4.45;;
8268;SDS011;4174;48.304;16.364;2023-05-18T18:43:47;9.60;;;3.80;;
8268;SDS011;4174;48.304;16.364;2023-05-18T18:49:51;11.82;;;4.93;;
8268;SDS011;4174;48.304;16.364;2023-05-18T18:55:55;12.07;;;4.07;;
8268;SDS011;4174;48.304;16.364;2023-05-18T19:01:58;12.33;;;4.17;;
8268;SDS011;4174;48.304;16.364;2023-05-18T19:08:02;10.10;;;4.10;;
8268;SDS011;4174;48.304;16.364;2023-05-18T19:14:06;11.95;;;4.10;;
8268;SDS011;4174;48.304;16.364;2023-05-18T19:20:10;12.00;;;4.35;;
8268;SDS011;4174;48.304;16.364;2023-05-18T19:26:13;13.02;;;4.30;;
8268;SDS011;4174;48.304;16.364;2023-05-18T19:32:16;11.33;;;4.43;;
8268;SDS011;4174;48.304;16.364;2023-05-18T19:38:21;11.07;;;4.53;;
8268;SDS011;4174;48.304;16.364;2023-05-18T19:44:25;13.38;;;5.07;;
8268;SDS011;4174;48.304;16.364;2023-05-18T19:50:28;12.47;;;4.93;;
8268;SDS011;4174;48.304;16.364;2023-05-18T19:56:33;9.73;;;4.40;;
8268;SDS011;4174;48.304;16.364;2023-05-18T20:02:34;12.88;;;4.78;;
8268;SDS011;4174;48.304;16.364;2023-05-18T20:08:37;10.57;;;4.60;;
8268;SDS011;4174;48.304;16.364;2023-05-18T20:14:40;11.30;;;4.73;;
8268;SDS011;4174;48.304;16.364;2023-05-18T20:20:43;14.00;;;5.70;;
8268;SDS011;4174;48.304;16.364;2023-05-18T20:26:46;12.77;;;5.00;;
8268;SDS011;4174;48.304;16.364;2023-05-18T20:32:51;8.43;;;3.30;;
8268;SDS011;4174;48.304;16.364;2023-05-18T20:38:55;9.13;;;3.12;;
8268;SDS011;4174;48.304;16.364;2023-05-18T20:44:58;10.67;;;3.30;;
8268;SDS011;4174;48.304;16.364;2023-05-18T20:51:02;7.57;;;3.17;;
8268;SDS011;4174;48.304;16.364;2023-05-18T20:57:05;8.47;;;3.00;;
8268;SDS011;4174;48.304;16.364;2023-05-18T21:03:09;9.83;;;3.30;;
8268;SDS011;4174;48.304;16.364;2023-05-18T21:09:12;8.47;;;3.20;;
8268;SDS011;4174;48.304;16.364;2023-05-18T21:15:15;8.65;;;3.37;;
8268;SDS011;4174;48.304;16.364;2023-05-18T21:21:18;9.07;;;3.40;;
8268;SDS011;4174;48.304;16.364;2023-05-18T21:27:22;9.07;;;3.43;;
8268;SDS011;4174;48.304;16.364;2023-05-18T21:33:26;10.02;;;3.58;;
8268;SDS011;4174;48.304;16.364;2023-05-18T21:39:30;9.83;;;3.40;;
8268;SDS011;4174;48.304;16.364;2023-05-18T21:45:34;9.88;;;3.60;;
8268;SDS011;4174;48.304;16.364;2023-05-18T21:51:38;10.03;;;3.70;;
8268;SDS011;4174;48.304;16.364;2023-05-18T21:57:41;8.98;;;3.60;;
8268;SDS011;4174;48.304;16.364;2023-05-18T22:03:46;10.40;;;5.10;;
8268;SDS011;4174;48.304;16.364;2023-05-18T22:09:49;11.63;;;5.22;;
8268;SDS011;4174;48.304;16.364;2023-05-18T22:15:53;12.07;;;4.60;;
8268;SDS011;4174;48.304;16.364;2023-05-18T22:21:56;9.93;;;4.53;;
8268;SDS011;4174;48.304;16.364;2023-05-18T22:28:00;11.23;;;4.50;;
8268;SDS011;4174;48.304;16.364;2023-05-18T22:34:04;11.07;;;4.30;;
8268;SDS011;4174;48.304;16.364;2023-05-18T22:40:08;9.87;;;3.90;;
8268;SDS011;4174;48.304;16.364;2023-05-18T22:46:13;9.43;;;3.85;;
8268;SDS011;4174;48.304;16.364;2023-05-18T22:52:16;10.70;;;3.95;;
8268;SDS011;4174;48.304;16.364;2023-05-18T22:58:21;7.90;;;3.50;;
8268;SDS011;4174;48.304;16.364;2023-05-18T23:04:25;10.50;;;4.00;;
8268;SDS011;4174;48.304;16.364;2023-05-18T23:10:28;9.50;;;3.93;;
8268;SDS011;4174;48.304;16.364;2023-05-18T23:16:32;11.32;;;4.43;;
8268;SDS011;4174;48.304;16.364;2023-05-18T23:22:35;10.97;;;4.60;;
8268;SDS011;4174;48.304;16.364;2023-05-18T23:28:39;10.73;;;4.60;;
8268;SDS011;4174;48.304;16.364;2023-05-18T23:34:43;11.63;;;4.47;;
8268;SDS011;4174;48.304;16.364;2023-05-18T23:40:48;10.20;;;4.07;;
8268;SDS011;4174;48.304;16.364;2023-05-18T23:46:52;9.38;;;4.30;;
8268;SDS011;4174;48.304;16.364;2023-05-18T23:52:56;10.73;;;4.70;;
8268;SDS011;4174;48.304;16.364;2023-05-18T23:58:59;12.50;;;5.30;;
